Time;durP1;ratioP1;P1;durP2;ratioP2;P2;SDS_P1;SDS_P2;PMS_P1;PMS_P2;Temp;Humidity;BMP_temperature;BMP_pressure;BME280_temperature;BME280_humidity;BME280_pressure;Samples;Min_cycle;Max_cycle;Signal;HPM_P1;HPM_P2
2021/11/03 00:02:28;;;;;;;33.90;21.90;;;;;;;9.18;71.41;97944.56;236168;1195;138935;-61
2021/11/03 00:07:31;;;;;;;32.10;21.80;;;;;;;9.18;71.57;97951.23;235464;1195;139741;-62
2021/11/03 00:12:35;;;;;;;32.10;21.40;;;;;;;9.22;71.55;97949.52;235913;1194;138352;-61
2021/11/03 00:17:38;;;;;;;36.10;22.20;;;;;;;9.23;71.77;97950.35;236801;1193;139460;-61
2021/11/03 00:22:42;;;;;;;34.20;21.80;;;;;;;9.24;71.51;97955.41;236554;1194;138634;-62
2021/11/03 00:27:45;;;;;;;31.70;21.30;;;;;;;9.23;71.34;97956.16;236185;1195;138872;-59
2021/11/03 00:32:51;;;;;;;34.40;21.30;;;;;;;9.27;71.31;97960.55;236359;1194;140305;-61
2021/11/03 00:37:54;;;;;;;34.80;21.10;;;;;;;9.28;71.27;97964.01;236524;1194;138747;-60
2021/11/03 00:42:57;;;;;;;30.70;20.40;;;;;;;9.28;71.39;97974.24;236545;1194;138008;-60
2021/11/03 00:48:01;;;;;;;34.00;21.00;;;;;;;9.28;71.36;97981.15;236073;1194;138553;-61
2021/11/03 00:53:06;;;;;;;30.90;20.50;;;;;;;9.24;71.32;97986.77;236385;1194;139082;-60
2021/11/03 00:58:09;;;;;;;29.90;19.70;;;;;;;9.23;71.29;97994.11;236281;1194;138955;-60
2021/11/03 01:03:13;;;;;;;34.40;21.70;;;;;;;9.27;71.27;97992.05;236294;1195;138412;-60
2021/11/03 01:08:17;;;;;;;33.30;21.00;;;;;;;9.30;71.33;97995.86;235977;1195;139799;-57
2021/11/03 01:13:24;;;;;;;32.20;20.20;;;;;;;9.31;71.14;98005.59;236235;1194;138485;-60
2021/11/03 01:18:30;;;;;;;34.90;22.10;;;;;;;9.28;71.15;98009.31;236592;1194;138361;-59
2021/11/03 01:23:33;;;;;;;30.70;20.90;;;;;;;9.22;70.69;98008.10;236468;1194;140246;-57
2021/11/03 01:28:36;;;;;;;32.60;21.50;;;;;;;9.21;70.80;98008.00;236383;1195;138874;-59
2021/11/03 01:33:40;;;;;;;32.90;20.80;;;;;;;9.21;70.85;98013.15;236539;1194;139800;-59
2021/11/03 01:38:43;;;;;;;33.50;21.60;;;;;;;9.18;70.77;98012.33;235898;1195;137787;-58
2021/11/03 01:43:51;;;;;;;36.00;23.20;;;;;;;9.19;71.05;98008.52;236116;1195;137975;-60
2021/11/03 01:49:01;;;;;;;35.20;22.60;;;;;;;9.22;70.90;97999.27;236184;1195;138512;-60
2021/11/03 01:54:09;;;;;;;33.50;20.40;;;;;;;9.22;71.00;97999.65;236292;1195;138486;-60
2021/11/03 01:59:47;;;;;;;33.50;22.20;;;;;;;9.11;70.35;98008.23;236044;1195;138516;-60
2021/11/03 02:04:50;;;;;;;34.60;21.00;;;;;;;9.04;70.52;98012.08;235653;1193;138949;-59
2021/11/03 02:09:54;;;;;;;34.40;20.90;;;;;;;8.98;70.53;98007.90;236032;1194;138600;-59
2021/11/03 02:14:58;;;;;;;36.60;21.10;;;;;;;8.92;70.64;98009.73;236540;1194;138798;-59
2021/11/03 02:20:08;;;;;;;32.20;21.10;;;;;;;8.85;70.79;98006.55;236340;1195;139433;-60
2021/11/03 02:25:25;;;;;;;34.60;21.00;;;;;;;8.82;70.79;98012.85;236256;1194;139360;-63
2021/11/03 02:30:28;;;;;;;35.90;21.60;;;;;;;8.77;71.02;98019.16;236517;1194;138951;-63
2021/11/03 02:35:31;;;;;;;34.20;22.10;;;;;;;8.78;70.86;98017.16;236660;1194;139207;-60
2021/11/03 02:40:37;;;;;;;36.50;21.10;;;;;;;8.81;70.63;98024.93;236570;1194;139698;-61
2021/11/03 02:45:53;;;;;;;34.90;22.50;;;;;;;8.80;70.74;98026.02;236495;1194;138972;-59
2021/11/03 02:51:07;;;;;;;33.40;21.90;;;;;;;8.78;70.71;98025.83;236211;1195;138341;-61
2021/11/03 02:56:13;;;;;;;34.90;21.10;;;;;;;8.79;70.87;98019.05;236324;1195;138540;-59
2021/11/03 03:01:44;;;;;;;37.10;23.10;;;;;;;8.79;70.69;98022.79;236632;1194;138659;-61
2021/11/03 03:06:47;;;;;;;34.80;20.70;;;;;;;8.75;70.73;98024.59;236555;1193;138795;-61
2021/11/03 03:11:56;;;;;;;36.70;22.50;;;;;;;8.68;70.61;98030.08;236754;1193;140216;-60
2021/11/03 03:17:01;;;;;;;32.60;21.40;;;;;;;8.72;70.70;98027.84;236670;1194;140328;-60
2021/11/03 03:22:05;;;;;;;37.30;21.90;;;;;;;8.74;70.53;98032.11;236512;1193;139324;-60
2021/11/03 03:27:09;;;;;;;33.20;21.60;;;;;;;8.71;70.38;98032.67;236097;1193;140115;-58
2021/11/03 03:32:14;;;;;;;35.00;22.10;;;;;;;8.66;70.26;98032.00;235967;1196;139314;-59
2021/11/03 03:37:17;;;;;;;35.90;22.50;;;;;;;8.64;70.51;98033.19;235344;1195;143553;-59
2021/11/03 03:42:26;;;;;;;33.70;22.10;;;;;;;8.61;70.22;98036.95;236261;1194;140136;-59
2021/11/03 03:47:29;;;;;;;34.40;21.30;;;;;;;8.54;70.20;98041.83;236625;1194;139907;-57
2021/11/03 03:52:33;;;;;;;32.60;21.30;;;;;;;8.50;70.21;98055.02;236158;1195;139347;-60
2021/11/03 03:57:37;;;;;;;33.20;21.30;;;;;;;8.45;70.17;98060.48;236472;1194;139121;-59
2021/11/03 04:02:42;;;;;;;35.00;21.40;;;;;;;8.48;70.22;98063.10;236215;1194;139403;-61
2021/11/03 04:07:48;;;;;;;34.00;20.70;;;;;;;8.45;70.07;98066.83;236479;1194;140116;-60
2021/11/03 04:12:51;;;;;;;29.10;19.60;;;;;;;8.36;69.75;98073.11;236381;1194;139645;-59
2021/11/03 04:17:54;;;;;;;28.90;19.40;;;;;;;8.25;69.78;98078.43;236008;1195;138592;-60
2021/11/03 04:22:58;;;;;;;30.60;19.50;;;;;;;8.20;70.06;98086.22;236555;1194;138580;-60
2021/11/03 04:28:03;;;;;;;28.80;19.20;;;;;;;8.23;70.21;98092.51;236383;1194;139993;-60
2021/11/03 04:33:07;;;;;;;18.20;13.80;;;;;;;8.29;70.22;98088.42;236334;1195;139334;-62
2021/11/03 04:38:10;;;;;;;31.20;17.60;;;;;;;8.36;70.34;98087.40;236140;1195;139068;-59
2021/11/03 04:43:14;;;;;;;26.90;19.10;;;;;;;8.40;70.19;98092.84;236256;1194;139502;-60
2021/11/03 04:48:18;;;;;;;24.20;16.70;;;;;;;8.36;69.96;98100.32;236440;1195;139020;-61
2021/11/03 04:53:22;;;;;;;27.50;17.30;;;;;;;8.28;69.81;98106.15;235757;1195;138574;-59
2021/11/03 04:58:25;;;;;;;23.40;16.70;;;;;;;8.16;69.64;98109.98;236392;1195;138895;-60
2021/11/03 05:03:29;;;;;;;24.10;16.20;;;;;;;8.03;69.53;98112.40;236275;1194;139120;-59
2021/11/03 05:08:32;;;;;;;23.50;15.30;;;;;;;7.96;69.56;98112.74;236376;1194;139647;-59
2021/11/03 05:13:36;;;;;;;25.10;16.90;;;;;;;7.90;69.56;98114.15;236313;1195;140023;-60
2021/11/03 05:18:39;;;;;;;26.60;16.80;;;;;;;7.86;69.62;98117.23;236295;1195;139555;-60
2021/11/03 05:23:43;;;;;;;24.80;16.70;;;;;;;7.80;69.47;98121.70;236643;1194;138548;-60
2021/11/03 05:28:50;;;;;;;28.50;17.00;;;;;;;7.74;69.57;98125.31;236511;1195;140456;-59
2021/11/03 05:33:54;;;;;;;28.10;18.70;;;;;;;7.64;69.35;98125.08;235115;1195;139065;-60
2021/11/03 05:39:05;;;;;;;25.10;17.70;;;;;;;7.55;69.47;98119.24;236087;1195;138169;-60
2021/11/03 05:44:11;;;;;;;26.60;17.50;;;;;;;7.47;69.50;98116.77;236644;1194;140551;-61
2021/11/03 05:49:17;;;;;;;23.80;16.50;;;;;;;7.43;69.42;98115.45;236251;1194;139046;-60
2021/11/03 05:54:26;;;;;;;25.70;17.50;;;;;;;7.40;69.55;98115.82;236619;1194;138889;-61
2021/11/03 05:59:32;;;;;;;25.70;17.50;;;;;;;7.40;69.73;98128.71;236771;1194;139115;-60
2021/11/03 06:04:35;;;;;;;28.90;18.60;;;;;;;7.39;69.70;98138.34;236308;1194;138978;-60
2021/11/03 06:09:38;;;;;;;29.70;19.20;;;;;;;7.37;69.51;98141.98;236331;1194;139428;-60
2021/11/03 06:14:41;;;;;;;29.50;19.40;;;;;;;7.31;69.58;98147.23;236486;1194;138275;-60
2021/11/03 06:19:44;;;;;;;27.90;18.10;;;;;;;7.28;69.69;98156.60;236004;1195;139706;-57
2021/11/03 06:24:50;;;;;;;29.00;18.90;;;;;;;7.30;69.96;98165.33;236240;1193;139407;-61
2021/11/03 06:29:54;;;;;;;28.30;18.10;;;;;;;7.36;70.21;98172.18;236541;1195;139360;-60
2021/11/03 06:34:57;;;;;;;35.40;18.40;;;;;;;7.45;70.07;98187.73;236505;1194;140280;-60
2021/11/03 06:40:00;;;;;;;28.80;18.40;;;;;;;7.54;70.33;98190.48;236499;1194;138537;-63
2021/11/03 06:45:05;;;;;;;34.80;18.80;;;;;;;7.58;70.09;98198.70;236435;1194;139078;-61
2021/11/03 06:50:11;;;;;;;34.50;23.10;;;;;;;7.62;70.22;98211.14;236419;1194;138354;-60
2021/11/03 06:55:14;;;;;;;;;;;;;;;7.84;71.24;98218.38;236147;1194;138320;-60
2021/11/03 07:00:23;;;;;;;27.70;17.20;;;;;;;8.04;70.69;98225.39;236529;1187;124830;-61
2021/11/03 07:05:29;;;;;;;27.30;17.70;;;;;;;8.00;70.16;98222.64;236217;1195;138869;-62
2021/11/03 07:10:36;;;;;;;26.10;16.50;;;;;;;8.01;70.36;98227.15;235701;1193;140269;-62
2021/11/03 07:15:40;;;;;;;21.60;15.20;;;;;;;8.08;70.39;98224.96;235844;1195;138866;-62
2021/11/03 07:20:45;;;;;;;21.90;15.40;;;;;;;8.16;70.65;98223.39;236454;1194;138537;-62
2021/11/03 07:25:48;;;;;;;26.00;16.70;;;;;;;8.29;70.91;98227.45;236412;1194;138950;-61
2021/11/03 07:30:52;;;;;;;24.30;15.50;;;;;;;8.45;70.91;98232.28;236221;1194;138687;-62
2021/11/03 07:35:55;;;;;;;18.30;11.00;;;;;;;8.54;70.79;98239.48;235940;1194;138131;-59
2021/11/03 07:40:59;;;;;;;33.70;25.20;;;;;;;8.67;70.62;98238.62;235862;1195;139265;-59
2021/11/03 07:46:02;;;;;;;10.20;6.20;;;;;;;8.92;70.97;98244.69;236093;1194;139076;-60
2021/11/03 07:51:08;;;;;;;8.90;6.20;;;;;;;9.12;70.62;98248.08;236209;1194;139377;-60
2021/11/03 07:56:15;;;;;;;9.00;6.60;;;;;;;9.31;70.47;98250.19;235366;1195;138616;-60
2021/11/03 08:01:19;;;;;;;8.00;6.60;;;;;;;9.54;70.44;98254.22;235988;1195;139897;-62
2021/11/03 08:06:23;;;;;;;8.30;6.40;;;;;;;9.67;70.04;98256.77;236151;1194;138066;-60
2021/11/03 08:11:29;;;;;;;10.10;6.40;;;;;;;9.76;69.67;98250.17;236609;1194;138224;-59
2021/11/03 08:16:46;;;;;;;9.80;6.50;;;;;;;9.89;69.47;98249.06;235966;1194;138307;-61
2021/11/03 08:21:49;;;;;;;36.00;26.80;;;;;;;10.06;69.64;98259.88;236462;1194;137779;-59
2021/11/03 08:26:53;;;;;;;20.20;6.30;;;;;;;10.35;70.44;98265.05;236066;1194;139177;-62
2021/11/03 08:31:58;;;;;;;15.90;6.10;;;;;;;10.74;69.72;98265.02;236371;1195;139062;-61
2021/11/03 08:37:06;;;;;;;132.00;78.30;;;;;;;10.86;68.90;98272.59;236493;1193;139113;-61
2021/11/03 08:42:09;;;;;;;16.40;8.30;;;;;;;11.01;69.05;98276.08;236365;1193;138789;-62
2021/11/03 08:47:12;;;;;;;150.70;104.20;;;;;;;11.08;68.29;98270.02;236243;1195;139048;-61
2021/11/03 08:52:18;;;;;;;11.00;6.60;;;;;;;11.19;68.05;98272.63;236250;1194;138892;-59
2021/11/03 08:57:23;;;;;;;7.10;5.30;;;;;;;11.23;67.63;98273.16;236475;1193;138102;-60
2021/11/03 09:02:29;;;;;;;8.90;4.20;;;;;;;11.27;67.45;98276.77;236536;1195;139579;-59
2021/11/03 09:07:32;;;;;;;4.40;3.00;;;;;;;11.31;67.14;98269.84;236304;1194;138373;-58
2021/11/03 09:12:36;;;;;;;125.10;82.60;;;;;;;11.40;67.12;98265.84;236333;1193;139923;-60
2021/11/03 09:17:39;;;;;;;7.20;3.40;;;;;;;11.55;66.72;98266.40;236371;1195;139119;-58
2021/11/03 09:22:43;;;;;;;4.00;2.50;;;;;;;11.73;66.45;98266.28;236159;1194;141077;-58
2021/11/03 09:27:47;;;;;;;4.30;2.20;;;;;;;11.93;66.32;98259.91;236532;1194;138074;-58
2021/11/03 09:32:58;;;;;;;1.70;1.40;;;;;;;12.05;66.17;98256.43;235742;1195;138172;-58
2021/11/03 09:38:03;;;;;;;8.70;4.70;;;;;;;12.15;65.54;98259.71;236165;1195;138871;-60
2021/11/03 09:43:24;;;;;;;172.80;135.90;;;;;;;12.27;65.24;98261.96;235726;1194;139090;-58
2021/11/03 09:48:33;;;;;;;15.80;10.50;;;;;;;12.42;65.12;98251.11;236164;1193;139403;-59
2021/11/03 09:53:50;;;;;;;139.60;82.20;;;;;;;12.46;64.22;98248.05;236394;1193;139031;-58
2021/11/03 09:59:01;;;;;;;8.90;4.70;;;;;;;12.52;64.28;98246.89;236573;1195;139862;-56
2021/11/03 10:04:13;;;;;;;4.90;2.20;;;;;;;12.57;63.61;98253.23;236525;1194;141123;-56
2021/11/03 10:09:16;;;;;;;2.90;1.80;;;;;;;12.65;63.66;98247.80;236563;1187;139320;-59
2021/11/03 10:14:20;;;;;;;5.00;2.10;;;;;;;12.77;63.23;98243.40;236531;1193;139601;-57
2021/11/03 10:19:37;;;;;;;3.20;1.70;;;;;;;12.88;63.17;98240.86;236449;1194;138748;-57
2021/11/03 10:24:44;;;;;;;4.60;2.00;;;;;;;13.06;63.03;98245.20;236572;1193;140213;-59
2021/11/03 10:29:53;;;;;;;5.40;2.10;;;;;;;13.23;62.74;98250.34;236709;1193;138838;-59
2021/11/03 10:35:26;;;;;;;3.50;1.90;;;;;;;13.38;62.29;98241.06;236556;1193;138198;-57
2021/11/03 10:40:43;;;;;;;3.80;1.90;;;;;;;13.48;61.61;98235.36;236505;1193;139032;-58
2021/11/03 10:45:58;;;;;;;6.70;1.90;;;;;;;13.59;61.50;98225.37;236418;1193;138636;-58
2021/11/03 10:51:15;;;;;;;4.40;2.20;;;;;;;13.67;61.44;98218.73;236570;1193;138831;-59
2021/11/03 10:56:33;;;;;;;8.80;4.30;;;;;;;13.73;61.13;98211.96;236542;1187;139915;-59
2021/11/03 11:01:40;;;;;;;4.70;2.00;;;;;;;13.81;60.98;98208.64;236541;1193;138045;-59
2021/11/03 11:06:49;;;;;;;3.50;1.80;;;;;;;13.83;60.65;98195.02;236586;1193;139489;-56
2021/11/03 11:12:00;;;;;;;3.10;1.70;;;;;;;13.86;60.58;98191.93;236734;1187;139590;-57
2021/11/03 11:17:15;;;;;;;2.60;1.60;;;;;;;13.92;60.16;98191.59;236577;1193;138265;-55
2021/11/03 11:22:27;;;;;;;2.80;1.70;;;;;;;14.00;60.02;98189.49;236419;1195;139655;-57
2021/11/03 11:27:37;;;;;;;3.00;1.70;;;;;;;14.06;59.84;98190.13;236487;1193;138412;-58
2021/11/03 11:33:01;;;;;;;3.00;1.50;;;;;;;14.14;59.74;98187.15;236605;1193;138306;-57
2021/11/03 11:38:21;;;;;;;4.00;1.60;;;;;;;14.24;59.46;98178.34;236554;1193;138908;-57
2021/11/03 11:43:29;;;;;;;3.10;1.80;;;;;;;14.34;59.36;98169.80;236534;1193;138088;-57
2021/11/03 11:48:39;;;;;;;3.90;1.60;;;;;;;14.46;59.39;98156.88;236534;1193;138628;-59
2021/11/03 11:53:47;;;;;;;4.80;1.90;;;;;;;14.64;59.27;98154.31;236681;1193;139378;-59
2021/11/03 11:59:13;;;;;;;2.50;1.30;;;;;;;14.76;58.81;98151.26;236559;1193;139132;-58
2021/11/03 12:04:19;;;;;;;6.50;1.60;;;;;;;14.78;58.31;98151.66;236363;1193;138928;-58
2021/11/03 12:09:34;;;;;;;4.20;1.30;;;;;;;14.76;57.95;98149.48;236591;1193;140655;-57
2021/11/03 12:14:54;;;;;;;4.40;1.20;;;;;;;14.78;57.82;98149.36;236547;1193;139563;-57
2021/11/03 12:19:58;;;;;;;2.40;1.30;;;;;;;14.83;57.81;98152.91;236529;1193;138313;-58
2021/11/03 12:25:13;;;;;;;2.80;1.50;;;;;;;14.85;57.36;98155.38;236644;1193;140146;-58
2021/11/03 12:30:16;;;;;;;144.80;102.00;;;;;;;14.88;57.22;98156.51;236526;1193;139839;-56
2021/11/03 12:35:19;;;;;;;9.80;5.00;;;;;;;14.96;57.23;98154.06;236497;1194;138936;-58
2021/11/03 12:40:29;;;;;;;10.60;5.30;;;;;;;15.18;58.37;98151.93;236512;1193;139456;-59
2021/11/03 12:45:39;;;;;;;4.80;2.20;;;;;;;16.07;61.03;98144.91;236332;1194;139360;-57
2021/11/03 12:50:42;;;;;;;4.90;1.80;;;;;;;16.63;59.00;98147.16;236349;1187;138494;-59
2021/11/03 12:56:13;;;;;;;5.30;2.30;;;;;;;16.88;58.17;98149.90;236244;1194;140161;-58
2021/11/03 13:01:22;;;;;;;3.80;1.70;;;;;;;16.87;56.17;98151.96;235702;1194;139424;-58
2021/11/03 13:06:41;;;;;;;6.00;2.80;;;;;;;17.00;56.33;98159.96;236481;1194;138402;-58
2021/11/03 13:11:49;;;;;;;3.10;1.30;;;;;;;17.18;56.12;98160.95;236644;1193;139719;-58
2021/11/03 13:16:57;;;;;;;3.80;1.30;;;;;;;17.07;54.58;98170.11;236329;1194;138156;-59
2021/11/03 13:22:15;;;;;;;3.70;1.40;;;;;;;16.74;54.02;98173.74;236611;1193;138939;-58
2021/11/03 13:27:30;;;;;;;4.30;2.50;;;;;;;16.72;54.31;98171.71;236439;1193;139366;-59
2021/11/03 13:32:35;;;;;;;5.70;3.20;;;;;;;16.55;54.27;98173.95;236169;1193;139743;-59
2021/11/03 13:37:50;;;;;;;6.60;3.90;;;;;;;16.87;55.03;98175.79;236408;1195;140109;-59
2021/11/03 13:42:56;;;;;;;7.20;4.20;;;;;;;16.94;54.97;98169.15;235268;1193;139452;-59
2021/11/03 13:47:59;;;;;;;22.00;10.40;;;;;;;17.37;55.68;98163.81;236545;1193;137919;-56
2021/11/03 13:53:16;;;;;;;32.80;12.60;;;;;;;17.69;56.10;98147.26;236365;1195;138876;-62
2021/11/03 13:58:19;;;;;;;32.80;11.90;;;;;;;18.16;56.58;98147.66;235676;1195;140526;-57
2021/11/03 14:03:44;;;;;;;411.90;274.00;;;;;;;18.56;55.99;98151.72;236412;1193;139457;-58
2021/11/03 14:08:49;;;;;;;10.60;5.30;;;;;;;18.23;53.33;98150.27;236141;1195;140883;-57
2021/11/03 14:13:57;;;;;;;8.20;3.10;;;;;;;17.58;52.12;98148.76;236235;1193;138377;-55
2021/11/03 14:19:06;;;;;;;11.90;3.20;;;;;;;17.00;51.93;98145.05;236576;1193;139935;-56
2021/11/03 14:24:16;;;;;;;10.70;3.50;;;;;;;16.49;52.26;98151.34;236212;1193;138316;-55
2021/11/03 14:29:19;;;;;;;10.40;3.70;;;;;;;16.07;52.39;98156.36;236319;1193;139844;-55
2021/11/03 14:34:29;;;;;;;13.30;4.10;;;;;;;15.71;52.40;98156.17;236144;1194;140153;-56
2021/11/03 14:39:35;;;;;;;15.40;4.60;;;;;;;15.34;52.74;98150.21;235823;1195;139394;-57
2021/11/03 14:44:41;;;;;;;17.40;5.60;;;;;;;15.03;52.91;98149.14;236226;1195;139477;-57
2021/11/03 14:49:48;;;;;;;11.90;5.40;;;;;;;14.78;53.13;98158.72;236364;1193;138802;-56
2021/11/03 14:54:54;;;;;;;18.10;6.00;;;;;;;14.49;53.28;98161.61;236453;1193;139154;-57
2021/11/03 14:59:57;;;;;;;;;;;;;;;14.27;53.66;98158.27;236384;1194;139929;-56
2021/11/03 15:05:00;;;;;;;19.90;5.10;;;;;;;14.07;54.01;98148.11;235377;1193;125752;-58
2021/11/03 15:10:26;;;;;;;20.70;6.60;;;;;;;13.87;54.19;98138.17;236279;1195;139440;-56
2021/11/03 15:15:29;;;;;;;23.60;6.70;;;;;;;13.73;54.32;98135.89;236295;1193;139262;-59
2021/11/03 15:20:34;;;;;;;23.50;7.40;;;;;;;13.63;54.60;98139.04;236517;1193;138812;-56
2021/11/03 15:25:38;;;;;;;21.60;6.30;;;;;;;13.47;54.90;98129.59;236217;1193;139838;-59
2021/11/03 15:30:48;;;;;;;13.00;4.30;;;;;;;13.35;55.17;98126.82;236196;1195;139288;-56
2021/11/03 15:35:55;;;;;;;177.20;112.40;;;;;;;13.27;55.28;98129.05;236098;1193;138441;-57
2021/11/03 15:41:01;;;;;;;14.40;6.80;;;;;;;13.31;55.92;98132.27;235747;1195;140608;-57
2021/11/03 15:46:21;;;;;;;;;;;;;;;13.33;55.79;98144.77;236282;1193;138347;-57
2021/11/03 15:51:24;;;;;;;20.30;11.00;;;;;;;13.21;55.88;98146.88;236284;1193;125273;-56
2021/11/03 15:56:27;;;;;;;14.50;5.20;;;;;;;13.08;55.84;98151.40;236397;1194;139561;-58
2021/11/03 16:01:32;;;;;;;261.90;172.20;;;;;;;12.92;55.91;98147.25;235978;1195;138955;-57
2021/11/03 16:06:38;;;;;;;34.40;22.20;;;;;;;12.86;56.69;98144.01;236410;1194;140350;-56
2021/11/03 16:11:45;;;;;;;10.00;5.50;;;;;;;12.87;56.65;98155.69;236492;1193;139707;-57
2021/11/03 16:16:52;;;;;;;13.80;5.50;;;;;;;12.77;56.91;98160.04;236044;1193;139171;-56
2021/11/03 16:21:58;;;;;;;13.60;6.10;;;;;;;12.67;56.83;98164.15;236382;1193;138838;-55
2021/11/03 16:27:01;;;;;;;15.60;5.40;;;;;;;12.55;56.89;98157.13;236429;1193;139513;-59
2021/11/03 16:32:04;;;;;;;12.40;6.10;;;;;;;12.46;57.12;98160.75;235880;1195;139088;-58
2021/11/03 16:37:07;;;;;;;16.90;6.60;;;;;;;12.42;57.49;98163.77;235461;1195;139643;-56
2021/11/03 16:42:26;;;;;;;15.70;6.50;;;;;;;12.46;57.67;98168.76;236448;1193;138768;-56
2021/11/03 16:47:37;;;;;;;421.90;300.20;;;;;;;12.54;57.74;98166.81;235887;1193;139347;-57
2021/11/03 16:52:41;;;;;;;38.40;19.40;;;;;;;12.65;57.65;98174.32;236198;1187;141343;-56
2021/11/03 16:57:44;;;;;;;15.70;6.20;;;;;;;12.71;57.79;98173.02;236271;1195;139464;-57
2021/11/03 17:02:48;;;;;;;13.50;5.70;;;;;;;12.75;57.57;98167.56;235662;1195;140503;-57
2021/11/03 17:08:35;;;;;;;11.50;5.40;;;;;;;12.71;57.30;98171.06;236400;1193;139218;-59
2021/11/03 17:13:51;;;;;;;73.70;44.60;;;;;;;12.67;57.45;98171.96;236348;1193;139155;-56
2021/11/03 17:18:54;;;;;;;10.70;5.30;;;;;;;12.67;57.30;98167.50;236261;1193;139460;-56
2021/11/03 17:23:58;;;;;;;8.10;5.20;;;;;;;12.61;56.97;98177.12;236516;1193;139951;-56
2021/11/03 17:29:13;;;;;;;12.90;5.40;;;;;;;12.51;56.92;98177.73;236586;1194;140467;-57
2021/11/03 17:34:17;;;;;;;19.20;10.30;;;;;;;12.44;57.00;98175.83;235598;1193;140637;-60
2021/11/03 17:39:22;;;;;;;13.20;6.20;;;;;;;12.45;57.02;98179.89;236293;1193;139767;-58
2021/11/03 17:44:30;;;;;;;24.80;12.20;;;;;;;12.40;56.65;98179.77;236209;1193;138923;-56
2021/11/03 17:49:40;;;;;;;36.30;23.90;;;;;;;12.43;57.55;98186.98;235685;1195;140151;-56
2021/11/03 17:54:43;;;;;;;10.90;5.60;;;;;;;12.49;57.02;98189.45;236512;1193;140543;-60
2021/11/03 17:59:48;;;;;;;12.10;5.40;;;;;;;12.45;56.79;98182.36;236561;1193;138571;-57
2021/11/03 18:04:52;;;;;;;19.50;9.40;;;;;;;12.39;56.88;98177.54;236211;1194;139300;-60
2021/11/03 18:09:55;;;;;;;9.50;5.40;;;;;;;12.32;56.55;98171.87;236494;1193;138593;-58
2021/11/03 18:14:58;;;;;;;9.60;5.30;;;;;;;12.25;56.85;98175.13;236308;1193;138572;-58
2021/11/03 18:20:04;;;;;;;11.30;5.40;;;;;;;12.16;56.65;98175.33;236383;1193;139600;-61
2021/11/03 18:25:08;;;;;;;14.00;6.00;;;;;;;12.08;56.64;98176.30;236154;1193;139328;-58
2021/11/03 18:30:35;;;;;;;16.50;6.00;;;;;;;12.03;56.60;98171.98;236569;1193;139258;-56
2021/11/03 18:35:38;;;;;;;14.60;6.30;;;;;;;11.99;56.65;98165.36;236200;1193;139495;-57
2021/11/03 18:40:41;;;;;;;14.90;6.70;;;;;;;11.87;56.57;98174.84;236521;1193;138547;-57
2021/11/03 18:45:45;;;;;;;18.40;7.60;;;;;;;11.77;56.85;98174.17;236490;1193;139127;-58
2021/11/03 18:50:53;;;;;;;127.30;68.70;;;;;;;11.72;56.96;98176.20;236437;1193;139334;-57
2021/11/03 18:56:02;;;;;;;35.90;15.40;;;;;;;11.77;57.53;98186.52;236369;1194;139935;-59
2021/11/03 19:01:08;;;;;;;20.50;8.80;;;;;;;11.78;57.18;98185.85;236529;1193;139826;-59
2021/11/03 19:06:32;;;;;;;18.00;7.70;;;;;;;11.73;56.94;98176.45;236591;1186;139214;-59
2021/11/03 19:11:36;;;;;;;16.30;7.20;;;;;;;11.70;57.12;98179.76;236341;1193;232766;-59
2021/11/03 19:16:39;;;;;;;17.00;7.00;;;;;;;11.69;57.11;98179.16;236365;1193;139808;-59
2021/11/03 19:21:43;;;;;;;13.30;6.80;;;;;;;11.66;57.25;98179.20;236040;1195;139668;-60
2021/11/03 19:26:46;;;;;;;11.50;6.60;;;;;;;11.60;57.18;98174.31;235967;1194;138648;-60
2021/11/03 19:31:51;;;;;;;16.60;8.80;;;;;;;11.53;57.16;98187.31;236521;1194;139472;-59
2021/11/03 19:36:59;;;;;;;24.30;10.30;;;;;;;11.47;57.52;98197.96;236420;1194;138712;-57
2021/11/03 19:42:04;;;;;;;21.90;10.70;;;;;;;11.46;57.23;98197.48;236584;1193;139796;-60
2021/11/03 19:47:08;;;;;;;20.30;8.90;;;;;;;11.42;57.72;98191.44;236496;1193;138897;-59
2021/11/03 19:52:24;;;;;;;22.90;9.10;;;;;;;11.34;57.56;98204.48;236492;1193;139456;-60
2021/11/03 19:57:31;;;;;;;242.80;161.60;;;;;;;11.29;58.00;98205.73;236339;1193;139163;-60
2021/11/03 20:02:34;;;;;;;21.10;10.70;;;;;;;11.39;58.25;98203.05;235797;1195;139964;-59
2021/11/03 20:07:40;;;;;;;17.10;9.40;;;;;;;11.40;58.04;98200.07;236262;1195;140061;-58
2021/11/03 20:12:43;;;;;;;17.60;9.60;;;;;;;11.35;57.76;98196.42;236232;1194;139732;-60
2021/11/03 20:17:47;;;;;;;28.00;10.90;;;;;;;11.28;58.08;98192.19;235388;1193;139588;-58
2021/11/03 20:22:53;;;;;;;26.20;12.10;;;;;;;11.19;57.86;98188.98;236267;1193;139605;-59
2021/11/03 20:27:57;;;;;;;20.70;10.90;;;;;;;11.13;57.87;98185.88;236384;1193;140173;-57
2021/11/03 20:33:13;;;;;;;20.10;10.10;;;;;;;11.05;58.01;98182.63;236116;1194;139823;-58
2021/11/03 20:38:27;;;;;;;;;;;;;;;10.94;58.29;98171.91;236325;1194;140624;-58
2021/11/03 20:43:31;;;;;;;20.30;10.20;;;;;;;10.86;58.34;98171.30;236701;1193;126479;-61
2021/11/03 20:48:35;;;;;;;22.10;10.00;;;;;;;10.86;58.46;98172.67;236709;1193;139321;-60
2021/11/03 20:53:39;;;;;;;22.40;10.20;;;;;;;10.89;58.41;98174.77;235240;1193;139866;-58
2021/11/03 20:58:47;;;;;;;19.30;10.00;;;;;;;10.86;58.58;98174.13;236618;1193;140896;-60
2021/11/03 21:03:50;;;;;;;16.10;9.00;;;;;;;10.87;58.94;98177.03;236553;1193;140414;-59
2021/11/03 21:08:54;;;;;;;14.50;8.40;;;;;;;10.83;58.98;98178.98;236344;1193;139074;-58
2021/11/03 21:13:57;;;;;;;14.30;8.50;;;;;;;10.77;58.88;98183.17;236507;1186;139526;-59
2021/11/03 21:19:03;;;;;;;14.10;8.10;;;;;;;10.70;59.12;98181.25;235891;1193;139211;-58
2021/11/03 21:24:06;;;;;;;16.00;8.30;;;;;;;10.67;59.43;98179.33;236665;1193;139493;-57
2021/11/03 21:29:09;;;;;;;13.10;8.30;;;;;;;10.69;59.52;98180.62;236404;1195;139722;-59
2021/11/03 21:34:12;;;;;;;12.80;8.40;;;;;;;10.73;59.47;98176.90;236600;1194;138763;-60
2021/11/03 21:39:16;;;;;;;17.80;10.10;;;;;;;10.74;59.66;98183.95;236607;1194;139355;-59
2021/11/03 21:44:20;;;;;;;14.10;8.30;;;;;;;10.72;59.57;98182.12;236431;1193;139809;-59
2021/11/03 21:49:23;;;;;;;16.40;9.40;;;;;;;10.70;59.60;98191.16;235633;1195;139051;-59
2021/11/03 21:54:27;;;;;;;13.80;8.90;;;;;;;10.67;59.92;98182.31;236449;1195;139098;-59
2021/11/03 21:59:30;;;;;;;18.50;9.70;;;;;;;10.68;59.80;98183.33;236325;1195;139379;-59
2021/11/03 22:04:33;;;;;;;15.20;8.80;;;;;;;10.66;59.79;98186.11;235806;1195;141147;-58
2021/11/03 22:09:37;;;;;;;20.50;9.20;;;;;;;10.63;60.02;98181.93;236261;1195;139839;-59
2021/11/03 22:14:41;;;;;;;15.20;8.40;;;;;;;10.57;59.97;98176.55;236668;1193;140542;-60
2021/11/03 22:19:44;;;;;;;15.70;9.30;;;;;;;10.52;60.37;98182.07;236554;1195;139763;-61
2021/11/03 22:24:47;;;;;;;14.30;9.20;;;;;;;10.48;60.42;98181.13;236272;1194;139311;-61
2021/11/03 22:29:50;;;;;;;14.00;8.90;;;;;;;10.44;60.67;98169.20;236583;1193;140216;-57
2021/11/03 22:34:53;;;;;;;14.00;9.00;;;;;;;10.46;60.84;98171.36;236534;1193;138708;-60
2021/11/03 22:39:56;;;;;;;13.30;8.40;;;;;;;10.52;60.97;98171.23;236492;1194;138927;-58
2021/11/03 22:44:59;;;;;;;15.20;9.30;;;;;;;10.60;61.11;98173.83;236366;1194;139616;-58
2021/11/03 22:50:05;;;;;;;16.00;8.60;;;;;;;10.66;61.27;98180.27;236418;1193;139590;-57
2021/11/03 22:55:09;;;;;;;13.10;8.40;;;;;;;10.73;61.29;98178.16;236663;1193;150786;-60
2021/11/03 23:00:18;;;;;;;14.30;8.80;;;;;;;10.77;61.34;98181.95;236620;1193;139590;-58
2021/11/03 23:05:22;;;;;;;13.30;10.00;;;;;;;10.78;61.49;98181.83;236205;1195;139746;-58
2021/11/03 23:10:25;;;;;;;15.60;9.50;;;;;;;10.80;61.51;98185.73;236380;1195;139018;-56
2021/11/03 23:15:28;;;;;;;16.50;9.90;;;;;;;10.81;61.70;98180.86;236425;1193;139244;-57